Foveran, United Kingdom
Current Conditions -  °F | °C
As of 4:50 PM on Thursday 30 Oct 2014 (Local Time) from EGPD Reporting Station
Few Clouds Few Clouds  
Wind Chill: 52°   Ceiling: Unl
Heat Index: 52°   Visibility: 6mi
Dew Point: 50°   Wind: 7mph
Humidity: 94%   Direction: 160°SSE
Pressure: 29.85"   Gusts: NA
Location:  57.31°N, 2.04°W
Report Text: EGPD 301650Z 16006KT 9999 FEW007 11/10 Q1011 NOSIG
Loading
Personal Weather Stations






























Interactive Weather Map
Tropical Storm Tracking
New forecast layout! Learn more

10-Day Weather Forecast

Advertisements
Track Severe Weather on mobile